createdAt,value
2018-06-23T00:00:24.837Z,56.84
2018-06-23T00:02:53.384Z,57.55
2018-06-23T00:05:22.020Z,57.79
2018-06-23T00:07:50.796Z,57.84
2018-06-23T00:10:19.595Z,57.64
2018-06-23T00:12:48.256Z,57.55
2018-06-23T00:15:16.968Z,58.41
2018-06-23T00:17:45.567Z,58.91
2018-06-23T00:20:14.371Z,59.22
2018-06-23T00:22:43.176Z,59.00
2018-06-23T00:25:16.399Z,58.45
2018-06-23T00:27:45.052Z,58.65
2018-06-23T00:30:13.732Z,58.29
2018-06-23T00:32:42.563Z,58.29
2018-06-23T00:35:11.319Z,58.29
2018-06-23T00:37:39.976Z,58.15
2018-06-23T00:40:08.673Z,58.95
2018-06-23T00:42:37.637Z,58.59
2018-06-23T00:45:06.452Z,58.38
2018-06-23T00:47:35.149Z,59.21
2018-06-23T00:50:04.127Z,59.59
2018-06-23T00:52:32.843Z,59.21
2018-06-23T00:55:01.469Z,59.86
2018-06-23T00:57:30.227Z,59.29
2018-06-23T00:59:58.995Z,59.05
2018-06-23T01:02:27.886Z,59.27
2018-06-23T01:04:56.530Z,59.20
2018-06-23T01:07:25.191Z,59.37
2018-06-23T01:09:54.180Z,58.47
2018-06-23T01:12:22.880Z,60.09
2018-06-23T01:14:52.011Z,59.69
2018-06-23T01:17:20.647Z,59.84
2018-06-23T01:19:49.460Z,60.48
2018-06-23T01:22:18.235Z,60.17
2018-06-23T01:24:46.884Z,61.01
2018-06-23T01:27:15.648Z,60.97
2018-06-23T01:29:44.357Z,60.78
2018-06-23T01:32:13.038Z,60.56
2018-06-23T01:34:41.831Z,60.60
2018-06-23T01:37:10.515Z,60.81
2018-06-23T01:39:39.323Z,60.97
2018-06-23T01:42:08.126Z,61.26
2018-06-23T01:44:36.699Z,62.44
2018-06-23T01:47:05.628Z,61.61
2018-06-23T01:49:34.212Z,61.76
2018-06-23T01:52:02.934Z,61.47
2018-06-23T01:54:31.556Z,61.55
2018-06-23T01:57:00.148Z,62.03
2018-06-23T01:59:28.805Z,62.20
2018-06-23T02:01:57.371Z,62.48
2018-06-23T02:04:26.256Z,62.75
2018-06-23T02:06:54.995Z,63.00
2018-06-23T02:09:23.687Z,63.46
2018-06-23T02:11:52.434Z,63.70
2018-06-23T02:14:26.352Z,63.62
2018-06-23T02:17:00.045Z,63.23
2018-06-23T02:19:33.956Z,63.93
2018-06-23T02:22:07.746Z,65.02
2018-06-23T02:24:41.695Z,65.09
2018-06-23T02:27:15.873Z,64.44
2018-06-23T02:29:49.773Z,64.24
2018-06-23T02:32:23.712Z,64.39
2018-06-23T02:34:57.528Z,64.46
2018-06-23T02:37:26.584Z,64.19
2018-06-23T02:39:55.413Z,64.26
2018-06-23T02:42:24.011Z,64.88
2018-06-23T02:44:52.695Z,65.20
2018-06-23T02:47:21.385Z,65.37
2018-06-23T02:49:50.107Z,64.49
2018-06-23T02:52:18.903Z,64.92
2018-06-23T02:54:47.576Z,65.09
2018-06-23T02:57:16.212Z,64.56
2018-06-23T02:59:45.067Z,64.42
2018-06-23T03:02:13.815Z,64.19
2018-06-23T03:04:42.439Z,64.31
2018-06-23T03:07:11.147Z,63.80
2018-06-23T03:09:39.736Z,63.89
2018-06-23T03:12:08.789Z,64.18
2018-06-23T03:14:37.490Z,64.13
2018-06-23T03:17:10.760Z,64.31
2018-06-23T03:19:39.468Z,63.65
2018-06-23T03:22:08.079Z,64.10
2018-06-23T03:24:36.942Z,64.26
2018-06-23T03:27:05.691Z,64.36
2018-06-23T03:29:34.292Z,64.04
2018-06-23T03:32:03.114Z,64.15
2018-06-23T03:34:31.993Z,63.33
2018-06-23T03:37:00.692Z,63.87
2018-06-23T03:39:29.363Z,63.34
2018-06-23T03:41:58.049Z,63.33
2018-06-23T03:44:26.672Z,63.07
2018-06-23T03:46:55.697Z,63.23
2018-06-23T03:49:24.512Z,62.96
2018-06-23T03:51:53.371Z,63.17
2018-06-23T03:54:22.179Z,63.27
2018-06-23T03:56:50.886Z,62.91
2018-06-23T03:59:19.673Z,63.33
2018-06-23T04:01:48.320Z,63.21
2018-06-23T04:04:17.041Z,63.02
2018-06-23T04:06:45.931Z,62.84
2018-06-23T04:09:14.636Z,62.83
2018-06-23T04:11:43.251Z,62.01
2018-06-23T04:14:11.796Z,62.50
2018-06-23T04:16:40.493Z,62.36
2018-06-23T04:19:09.285Z,62.85
2018-06-23T04:21:37.946Z,62.36
2018-06-23T04:24:06.603Z,62.30
2018-06-23T04:26:35.527Z,61.95
2018-06-23T04:29:04.140Z,61.26
2018-06-23T04:31:32.881Z,61.31
2018-06-23T04:34:01.753Z,61.72
2018-06-23T04:36:30.432Z,61.54
2018-06-23T04:38:59.049Z,61.88
2018-06-23T04:41:27.875Z,61.63
2018-06-23T04:43:56.935Z,61.00
2018-06-23T04:46:25.619Z,61.32
2018-06-23T04:48:54.256Z,61.48
2018-06-23T04:51:23.328Z,61.51
2018-06-23T04:53:52.156Z,61.62
2018-06-23T04:56:20.830Z,61.16
2018-06-23T04:58:49.583Z,62.14
2018-06-23T05:01:18.287Z,61.35
2018-06-23T05:03:47.136Z,61.72
2018-06-23T05:06:15.796Z,61.92
2018-06-23T05:08:44.805Z,62.10
2018-06-23T05:11:13.697Z,62.18
2018-06-23T05:13:42.592Z,61.93
2018-06-23T05:16:11.287Z,61.88
2018-06-23T05:18:39.887Z,61.59
2018-06-23T05:21:08.515Z,61.04
2018-06-23T05:23:37.179Z,60.17
2018-06-23T05:26:06.014Z,59.26
2018-06-23T05:28:34.563Z,57.88
2018-06-23T05:31:03.129Z,57.07
2018-06-23T05:33:31.733Z,57.22
2018-06-23T05:36:00.343Z,56.85
2018-06-23T05:38:28.987Z,56.16
2018-06-23T05:40:57.694Z,56.00
2018-06-23T05:43:26.495Z,55.53
2018-06-23T05:45:55.185Z,55.23
2018-06-23T05:48:23.743Z,55.37
2018-06-23T05:50:52.524Z,54.33
2018-06-23T05:53:21.289Z,54.84
2018-06-23T05:55:50.017Z,54.07
2018-06-23T05:58:18.911Z,53.41
2018-06-23T06:00:47.642Z,52.68
2018-06-23T06:03:16.164Z,53.16
2018-06-23T06:05:44.759Z,52.24
2018-06-23T06:08:13.522Z,52.51
2018-06-23T06:10:42.120Z,52.32
2018-06-23T06:13:10.788Z,51.60
2018-06-23T06:15:39.368Z,51.49
2018-06-23T06:18:08.677Z,51.82
2018-06-23T06:20:37.251Z,50.61
2018-06-23T06:23:06.972Z,50.18
2018-06-23T06:25:36.369Z,49.80
2018-06-23T06:28:06.399Z,49.05
2018-06-23T06:30:35.010Z,49.02
2018-06-23T06:33:03.919Z,47.85
2018-06-23T06:35:32.566Z,46.47
2018-06-23T06:38:01.227Z,46.25
2018-06-23T06:40:29.969Z,45.94
2018-06-23T06:42:58.603Z,45.86
2018-06-23T06:45:27.193Z,45.78
2018-06-23T06:47:56.799Z,46.03
2018-06-23T06:50:25.428Z,46.09
2018-06-23T06:52:54.087Z,45.75
2018-06-23T06:55:22.723Z,44.73
2018-06-23T06:57:51.390Z,45.15
2018-06-23T07:00:20.096Z,43.81
2018-06-23T07:02:48.651Z,41.81
2018-06-23T07:05:17.318Z,39.52
2018-06-23T07:07:45.929Z,39.13
2018-06-23T07:10:15.135Z,37.86
2018-06-23T07:12:43.768Z,35.61
2018-06-23T07:15:16.956Z,36.02
2018-06-23T07:17:45.976Z,34.21
2018-06-23T07:20:15.238Z,34.10
2018-06-23T07:22:44.573Z,34.28
2018-06-23T07:25:13.380Z,34.39
2018-06-23T07:27:42.337Z,34.97
2018-06-23T07:30:11.171Z,34.69
2018-06-23T07:32:39.786Z,33.85
2018-06-23T07:35:08.425Z,34.96
2018-06-23T07:37:37.083Z,35.47
2018-06-23T07:40:05.748Z,36.29
2018-06-23T07:42:34.439Z,37.62
2018-06-23T07:45:03.043Z,38.43
2018-06-23T07:47:31.764Z,37.88
2018-06-23T07:50:00.408Z,34.95
2018-06-23T07:52:28.963Z,33.88
2018-06-23T07:54:57.635Z,32.18
2018-06-23T07:57:26.304Z,31.65
2018-06-23T07:59:54.939Z,31.27
2018-06-23T08:02:23.524Z,31.42
2018-06-23T08:04:52.096Z,32.15
2018-06-23T08:07:20.774Z,29.78
2018-06-23T08:09:49.668Z,27.24
2018-06-23T08:12:18.383Z,28.62
2018-06-23T08:14:47.124Z,26.76
2018-06-23T08:17:16.044Z,28.06
2018-06-23T08:19:44.765Z,28.73
2018-06-23T08:22:13.408Z,30.37
2018-06-23T08:24:42.024Z,32.13
2018-06-23T08:27:10.764Z,29.96
2018-06-23T08:29:39.321Z,31.35
2018-06-23T08:32:08.108Z,29.38
2018-06-23T08:34:36.699Z,27.58
2018-06-23T08:37:05.840Z,28.04
2018-06-23T08:39:34.428Z,30.44
2018-06-23T08:42:02.992Z,31.20
2018-06-23T08:44:31.609Z,33.04
2018-06-23T08:47:00.304Z,30.62
2018-06-23T08:49:28.927Z,29.87
2018-06-23T08:51:57.568Z,30.32
2018-06-23T08:54:26.548Z,31.48
2018-06-23T08:56:55.348Z,31.92
2018-06-23T08:59:24.000Z,28.94
2018-06-23T09:01:52.709Z,27.53
2018-06-23T09:04:21.228Z,26.93
2018-06-23T09:06:50.869Z,26.93
2018-06-23T09:09:19.582Z,27.79
2018-06-23T09:11:48.206Z,29.08
2018-06-23T09:14:16.888Z,29.10
2018-06-23T09:16:45.528Z,27.97
2018-06-23T09:19:14.103Z,26.13
2018-06-23T09:21:42.770Z,23.70
2018-06-23T09:24:11.376Z,22.21
2018-06-23T09:26:39.936Z,23.53
2018-06-23T09:29:08.502Z,23.39
2018-06-23T09:31:39.582Z,25.12
2018-06-23T09:34:08.506Z,27.31
2018-06-23T09:36:37.148Z,28.97
2018-06-23T09:39:08.543Z,28.87
2018-06-23T09:41:37.336Z,28.73
2018-06-23T09:44:06.588Z,28.75
2018-06-23T09:46:35.295Z,28.80
2018-06-23T09:49:03.952Z,27.67
2018-06-23T09:51:32.792Z,26.09
2018-06-23T09:54:01.435Z,24.66
2018-06-23T09:56:30.105Z,25.64
2018-06-23T09:58:58.735Z,25.29
2018-06-23T10:01:27.383Z,26.34
2018-06-23T10:03:56.008Z,26.63
2018-06-23T10:06:24.664Z,26.32
2018-06-23T10:08:53.408Z,21.02
2018-06-23T10:11:22.214Z,21.15
2018-06-23T10:13:50.815Z,23.79
2018-06-23T10:16:19.456Z,25.63
2018-06-23T10:18:48.355Z,26.21
2018-06-23T10:21:16.872Z,27.50
2018-06-23T10:23:45.742Z,28.28
2018-06-23T10:26:14.499Z,28.37
2018-06-23T10:28:43.687Z,28.40
2018-06-23T10:31:12.223Z,28.22
2018-06-23T10:33:40.860Z,26.05
2018-06-23T10:36:09.539Z,21.96
2018-06-23T10:38:38.249Z,18.36
2018-06-23T10:41:06.751Z,18.83
2018-06-23T10:43:35.355Z,17.33
2018-06-23T10:46:03.936Z,19.06
2018-06-23T10:48:32.854Z,22.90
2018-06-23T10:51:01.508Z,24.84
2018-06-23T10:53:30.347Z,26.36
2018-06-23T10:55:59.216Z,27.24
2018-06-23T10:58:27.887Z,26.69
2018-06-23T11:00:56.703Z,26.19
2018-06-23T11:03:25.324Z,25.52
2018-06-23T11:05:54.382Z,24.13
2018-06-23T11:08:23.026Z,23.44
2018-06-23T11:10:51.584Z,21.29
2018-06-23T11:13:20.240Z,22.03
2018-06-23T11:15:48.875Z,19.91
2018-06-23T11:18:17.825Z,23.61
2018-06-23T11:20:46.511Z,23.81
2018-06-23T11:23:15.182Z,25.95
2018-06-23T11:25:43.751Z,24.46
2018-06-23T11:28:12.376Z,20.31
2018-06-23T11:30:41.239Z,17.31
2018-06-23T11:33:09.950Z,16.61
2018-06-23T11:35:38.577Z,14.60
2018-06-23T11:38:07.208Z,16.30
2018-06-23T11:40:35.835Z,17.63
2018-06-23T11:43:04.682Z,15.50
2018-06-23T11:45:33.323Z,14.50
2018-06-23T11:48:01.877Z,14.36
2018-06-23T11:50:30.446Z,14.25
2018-06-23T11:52:59.126Z,12.70
2018-06-23T11:55:28.111Z,12.94
2018-06-23T11:57:56.737Z,12.75
2018-06-23T12:00:25.771Z,13.34
2018-06-23T12:02:54.359Z,12.39
2018-06-23T12:05:23.020Z,11.98
2018-06-23T12:07:51.867Z,12.07
2018-06-23T12:10:20.491Z,11.71
2018-06-23T12:12:49.131Z,11.85
2018-06-23T12:15:17.767Z,11.09
2018-06-23T12:17:46.327Z,11.07
2018-06-23T12:20:14.989Z,9.72
2018-06-23T12:22:43.665Z,12.15
2018-06-23T12:25:12.282Z,11.84
2018-06-23T12:27:41.205Z,13.01
2018-06-23T12:30:10.112Z,13.13
2018-06-23T12:32:38.904Z,13.35
2018-06-23T12:35:07.761Z,13.51
2018-06-23T12:37:36.448Z,12.46
2018-06-23T12:40:05.036Z,11.61
2018-06-23T12:42:33.589Z,11.47
2018-06-23T12:45:02.541Z,10.72
2018-06-23T12:47:31.173Z,10.87
2018-06-23T12:49:59.759Z,11.44
2018-06-23T12:52:28.368Z,11.74
2018-06-23T12:54:56.951Z,12.57
2018-06-23T12:57:25.863Z,11.93
2018-06-23T12:59:54.523Z,11.77
2018-06-23T13:02:23.083Z,11.86
2018-06-23T13:04:51.888Z,11.64
2018-06-23T13:07:20.560Z,12.11
2018-06-23T13:09:49.160Z,12.39
2018-06-23T13:12:17.747Z,11.23
2018-06-23T13:14:46.416Z,12.78
2018-06-23T13:17:15.028Z,10.85
2018-06-23T13:19:43.676Z,12.13
2018-06-23T13:22:12.812Z,11.89
2018-06-23T13:24:41.384Z,12.76
2018-06-23T13:27:09.952Z,12.53
2018-06-23T13:29:38.644Z,12.46
2018-06-23T13:32:07.320Z,12.71
2018-06-23T13:34:35.927Z,13.21
2018-06-23T13:37:04.811Z,12.20
2018-06-23T13:39:33.804Z,12.30
2018-06-23T13:42:02.406Z,12.82
2018-06-23T13:44:31.048Z,13.37
2018-06-23T13:46:59.813Z,14.06
2018-06-23T13:49:28.548Z,14.46
2018-06-23T13:51:57.097Z,13.90
2018-06-23T13:54:25.733Z,13.17
2018-06-23T13:56:54.603Z,12.19
2018-06-23T13:59:23.426Z,13.11
2018-06-23T14:01:52.069Z,13.76
2018-06-23T14:04:20.648Z,12.86
2018-06-23T14:06:49.580Z,13.77
2018-06-23T14:09:18.214Z,13.74
2018-06-23T14:11:47.276Z,13.10
2018-06-23T14:14:16.140Z,13.28
2018-06-23T14:16:44.847Z,12.99
2018-06-23T14:19:13.491Z,14.35
2018-06-23T14:21:42.134Z,14.10
2018-06-23T14:24:10.909Z,14.19
2018-06-23T14:26:39.596Z,14.63
2018-06-23T14:29:09.662Z,13.65
2018-06-23T14:31:38.495Z,14.48
2018-06-23T14:34:07.115Z,15.98
2018-06-23T14:36:35.952Z,16.07
2018-06-23T14:39:07.152Z,14.90
2018-06-23T14:41:35.764Z,16.07
2018-06-23T14:44:04.355Z,16.15
2018-06-23T14:46:34.120Z,15.34
2018-06-23T14:49:02.739Z,16.54
2018-06-23T14:51:31.420Z,16.52
2018-06-23T14:54:00.740Z,16.99
2018-06-23T14:56:29.536Z,18.46
2018-06-23T14:58:58.188Z,17.09
2018-06-23T15:01:26.776Z,19.17
2018-06-23T15:03:55.371Z,19.98
2018-06-23T15:06:23.947Z,20.79
2018-06-23T15:09:04.128Z,21.52
2018-06-23T15:11:44.081Z,21.45
2018-06-23T15:14:12.716Z,22.13
2018-06-23T15:16:41.307Z,23.49
2018-06-23T15:19:10.019Z,23.60
2018-06-23T15:21:38.697Z,23.49
2018-06-23T15:24:07.383Z,24.08
2018-06-23T15:26:35.935Z,23.66
2018-06-23T15:29:05.004Z,25.06
2018-06-23T15:31:33.627Z,25.07
2018-06-23T15:34:02.520Z,23.46
2018-06-23T15:36:31.119Z,24.82
2018-06-23T15:38:59.667Z,24.13
2018-06-23T15:41:28.407Z,24.77
2018-06-23T15:43:57.060Z,25.02
2018-06-23T15:46:25.631Z,25.54
2018-06-23T15:48:54.664Z,25.04
2018-06-23T15:51:23.269Z,24.85
2018-06-23T15:53:51.958Z,25.17
2018-06-23T15:56:20.804Z,25.61
2018-06-23T15:58:49.363Z,26.13
2018-06-23T16:01:18.145Z,26.36
2018-06-23T16:03:46.735Z,26.34
2018-06-23T16:06:15.459Z,26.52
2018-06-23T16:08:44.108Z,26.17
2018-06-23T16:11:12.895Z,26.81
2018-06-23T16:13:41.519Z,25.81
2018-06-23T16:16:10.177Z,27.00
2018-06-23T16:18:38.788Z,27.60
2018-06-23T16:21:08.166Z,27.76
2018-06-23T16:23:36.924Z,27.09
2018-06-23T16:26:05.615Z,27.34
2018-06-23T16:28:34.269Z,27.33
2018-06-23T16:31:03.360Z,28.30
2018-06-23T16:33:31.991Z,29.02
2018-06-23T16:36:01.305Z,28.01
2018-06-23T16:38:29.965Z,28.08
2018-06-23T16:40:58.582Z,29.07
2018-06-23T16:43:27.501Z,28.86
2018-06-23T16:45:56.148Z,28.37
2018-06-23T16:48:24.696Z,28.79
2018-06-23T16:50:53.392Z,28.40
2018-06-23T16:53:21.990Z,28.99
2018-06-23T16:55:50.688Z,30.43
2018-06-23T16:58:19.604Z,30.14
2018-06-23T17:00:48.168Z,29.50
2018-06-23T17:03:17.372Z,29.67
2018-06-23T17:05:46.119Z,31.08
2018-06-23T17:08:14.807Z,30.24
2018-06-23T17:10:43.679Z,30.75
2018-06-23T17:13:12.362Z,30.70
2018-06-23T17:15:41.153Z,31.72
2018-06-23T17:18:09.759Z,31.68
2018-06-23T17:20:38.837Z,31.83
2018-06-23T17:23:08.191Z,32.39
2018-06-23T17:25:36.813Z,31.92
2018-06-23T17:28:06.116Z,31.92
2018-06-23T17:30:34.734Z,32.30
2018-06-23T17:33:03.339Z,31.91
2018-06-23T17:35:31.900Z,32.82
2018-06-23T17:38:00.683Z,32.65
2018-06-23T17:40:29.304Z,33.37
2018-06-23T17:42:57.976Z,33.42
2018-06-23T17:45:27.199Z,33.98
2018-06-23T17:47:55.915Z,34.19
2018-06-23T17:50:24.533Z,34.64
2018-06-23T17:52:53.133Z,35.25
2018-06-23T17:55:21.836Z,35.18
2018-06-23T17:57:51.005Z,35.09
2018-06-23T18:00:20.139Z,35.68
2018-06-23T18:02:48.727Z,36.15
2018-06-23T18:05:17.480Z,36.00
2018-06-23T18:07:46.157Z,35.49
2018-06-23T18:10:14.911Z,36.08
2018-06-23T18:12:43.656Z,36.92
2018-06-23T18:15:12.645Z,36.05
2018-06-23T18:17:41.372Z,36.86
2018-06-23T18:20:10.021Z,37.00
2018-06-23T18:22:38.991Z,36.87
2018-06-23T18:25:07.563Z,37.65
2018-06-23T18:27:36.482Z,36.63
2018-06-23T18:30:05.684Z,37.51
2018-06-23T18:32:34.559Z,37.62
2018-06-23T18:35:03.435Z,37.20
2018-06-23T18:37:32.044Z,37.45
2018-06-23T18:40:00.665Z,37.13
2018-06-23T18:42:29.339Z,37.63
2018-06-23T18:44:57.983Z,37.99
2018-06-23T18:47:26.853Z,37.74
2018-06-23T18:49:55.456Z,37.81
2018-06-23T18:52:24.713Z,38.87
2018-06-23T18:54:54.221Z,38.69
2018-06-23T18:57:23.379Z,39.27
2018-06-23T18:59:52.071Z,39.03
2018-06-23T19:02:20.919Z,38.07
2018-06-23T19:04:49.707Z,38.70
2018-06-23T19:07:18.383Z,38.33
2018-06-23T19:21:58.051Z,39.45
2018-06-23T19:24:26.699Z,39.52
2018-06-23T19:26:55.339Z,39.23
2018-06-23T19:29:23.951Z,39.37
2018-06-23T19:31:52.536Z,39.67
2018-06-23T19:34:21.456Z,39.74
2018-06-23T19:36:50.098Z,39.61
2018-06-23T19:39:19.526Z,40.29
2018-06-23T19:41:48.587Z,40.48
2018-06-23T19:44:18.938Z,40.23
2018-06-23T19:46:49.506Z,39.91
2018-06-23T19:49:18.723Z,40.72
2018-06-23T19:51:47.410Z,40.37
2018-06-23T19:54:16.028Z,40.18
2018-06-23T19:56:46.377Z,40.04
2018-06-23T19:59:15.076Z,40.66
2018-06-23T20:01:44.012Z,39.55
2018-06-23T20:04:12.604Z,39.58
2018-06-23T20:06:41.245Z,39.90
2018-06-23T20:09:10.363Z,39.63
2018-06-23T20:11:39.427Z,39.83
2018-06-23T20:14:08.852Z,39.71
2018-06-23T20:16:38.073Z,40.17
2018-06-23T20:19:06.738Z,39.83
2018-06-23T20:21:35.451Z,40.09
2018-06-23T20:26:54.904Z,40.32
2018-06-23T20:29:23.463Z,40.22
2018-06-23T20:31:52.216Z,40.48
2018-06-23T20:34:21.344Z,40.73
2018-06-23T20:36:49.966Z,40.55
2018-06-23T20:39:18.834Z,41.26
2018-06-23T20:41:47.576Z,41.11
2018-06-23T20:44:16.333Z,41.04
2018-06-23T20:46:44.947Z,41.34
2018-06-23T20:49:13.664Z,41.64
2018-06-23T20:51:43.136Z,42.14
2018-06-23T20:54:11.735Z,42.50
2018-06-23T20:56:40.359Z,42.91
2018-06-23T20:59:09.123Z,42.55
2018-06-23T21:01:38.254Z,43.04
2018-06-23T21:04:06.908Z,43.61
2018-06-23T21:06:35.587Z,42.96
2018-06-23T21:09:06.736Z,43.36
2018-06-23T21:11:35.460Z,43.62
2018-06-23T21:14:04.514Z,43.49
2018-06-23T21:16:33.359Z,42.70
2018-06-23T21:19:02.172Z,43.05
2018-06-23T21:21:31.323Z,43.01
2018-06-23T21:24:01.655Z,44.10
2018-06-23T21:26:30.327Z,43.63
2018-06-23T21:28:58.965Z,44.07
2018-06-23T21:31:28.304Z,44.25
2018-06-23T21:33:59.156Z,44.46
2018-06-23T21:36:27.780Z,44.01
2018-06-23T21:38:56.928Z,44.11
2018-06-23T21:41:25.565Z,44.42
2018-06-23T21:43:54.358Z,44.58
2018-06-23T21:46:23.096Z,44.52
2018-06-23T21:48:52.391Z,44.49
2018-06-23T21:51:21.068Z,43.96
2018-06-23T21:53:49.729Z,43.74
2018-06-23T21:56:18.308Z,43.62
2018-06-23T21:58:46.932Z,43.58
2018-06-23T22:01:15.598Z,43.64
2018-06-23T22:03:44.597Z,43.78
2018-06-23T22:06:13.243Z,43.65
2018-06-23T22:08:41.919Z,43.75
2018-06-23T22:11:10.683Z,44.01
2018-06-23T22:13:39.224Z,43.97
2018-06-23T22:16:14.008Z,43.94
2018-06-23T22:18:42.749Z,44.30
2018-06-23T22:21:11.338Z,44.25
2018-06-23T22:23:40.032Z,44.24
2018-06-23T22:26:08.812Z,44.82
2018-06-23T22:28:37.604Z,44.78
2018-06-23T22:31:06.618Z,45.03
2018-06-23T22:33:35.823Z,45.39
2018-06-23T22:36:04.673Z,44.96
2018-06-23T22:38:33.259Z,45.59
2018-06-23T22:41:02.780Z,45.75
2018-06-23T22:43:31.565Z,46.25
2018-06-23T22:46:00.276Z,45.91
2018-06-23T22:48:28.897Z,46.10
2018-06-23T22:50:57.504Z,46.13
2018-06-23T22:53:26.239Z,46.10
2018-06-23T22:55:54.796Z,46.36
2018-06-23T22:58:23.367Z,46.53
2018-06-23T23:00:52.112Z,46.62
2018-06-23T23:03:20.654Z,46.44
2018-06-23T23:05:49.548Z,46.69
2018-06-23T23:08:18.151Z,46.70
2018-06-23T23:10:46.740Z,47.29
2018-06-23T23:13:15.297Z,47.21
2018-06-23T23:15:43.827Z,47.44
2018-06-23T23:18:12.531Z,47.71
2018-06-23T23:20:41.036Z,47.38
2018-06-23T23:23:09.680Z,47.41
2018-06-23T23:25:38.264Z,47.65
2018-06-23T23:28:06.840Z,47.66
2018-06-23T23:30:35.442Z,47.94
2018-06-23T23:33:04.017Z,48.52
2018-06-23T23:35:32.602Z,49.23
2018-06-23T23:38:01.165Z,49.59
2018-06-23T23:40:29.816Z,49.57
2018-06-23T23:42:58.384Z,50.20
2018-06-23T23:45:27.083Z,49.96
2018-06-23T23:47:55.608Z,50.49
2018-06-23T23:50:24.180Z,50.40
2018-06-23T23:52:52.764Z,50.83
2018-06-23T23:55:21.603Z,50.69
2018-06-23T23:57:50.207Z,51.21
